sensor_id;sensor_type;location;lat;lon;timestamp;pressure;altitude;pressure_sealevel;temperature;humidity
13235;BME280;6683;48.506;9.050;2023-03-16T00:01:49;98491.47;;;4.00;69.43
13235;BME280;6683;48.506;9.050;2023-03-16T00:04:53;98485.56;;;3.98;69.95
13235;BME280;6683;48.506;9.050;2023-03-16T00:07:55;98482.25;;;3.96;69.91
13235;BME280;6683;48.506;9.050;2023-03-16T00:10:57;98475.97;;;3.89;69.08
13235;BME280;6683;48.506;9.050;2023-03-16T00:14:02;98481.59;;;3.85;69.64
13235;BME280;6683;48.506;9.050;2023-03-16T00:17:04;98471.69;;;3.79;69.42
13235;BME280;6683;48.506;9.050;2023-03-16T00:20:11;98479.25;;;3.72;69.83
13235;BME280;6683;48.506;9.050;2023-03-16T00:23:13;98479.38;;;3.71;70.12
13235;BME280;6683;48.506;9.050;2023-03-16T00:26:15;98486.66;;;3.67;70.16
13235;BME280;6683;48.506;9.050;2023-03-16T00:29:18;98479.09;;;3.64;69.81
13235;BME280;6683;48.506;9.050;2023-03-16T00:32:25;98490.63;;;3.62;69.52
13235;BME280;6683;48.506;9.050;2023-03-16T00:35:29;98493.53;;;3.59;69.59
13235;BME280;6683;48.506;9.050;2023-03-16T00:38:36;98498.88;;;3.57;70.22
13235;BME280;6683;48.506;9.050;2023-03-16T00:41:39;98496.53;;;3.54;70.23
13235;BME280;6683;48.506;9.050;2023-03-16T00:44:43;98495.84;;;3.52;70.08
13235;BME280;6683;48.506;9.050;2023-03-16T00:47:45;98506.41;;;3.51;70.11
13235;BME280;6683;48.506;9.050;2023-03-16T00:50:49;98497.19;;;3.47;69.70
13235;BME280;6683;48.506;9.050;2023-03-16T00:53:54;98500.94;;;3.44;69.92
13235;BME280;6683;48.506;9.050;2023-03-16T00:56:57;98494.28;;;3.40;69.70
13235;BME280;6683;48.506;9.050;2023-03-16T00:59:59;98488.38;;;3.38;70.06
13235;BME280;6683;48.506;9.050;2023-03-16T01:03:10;98486.91;;;3.36;69.71
13235;BME280;6683;48.506;9.050;2023-03-16T01:06:17;98498.28;;;3.35;69.63
13235;BME280;6683;48.506;9.050;2023-03-16T01:09:20;98499.38;;;3.32;70.28
13235;BME280;6683;48.506;9.050;2023-03-16T01:12:23;98498.56;;;3.32;70.04
13235;BME280;6683;48.506;9.050;2023-03-16T01:15:26;98497.03;;;3.29;70.14
13235;BME280;6683;48.506;9.050;2023-03-16T01:18:28;98497.16;;;3.28;70.19
13235;BME280;6683;48.506;9.050;2023-03-16T01:21:35;98493.06;;;3.25;70.18
13235;BME280;6683;48.506;9.050;2023-03-16T01:24:38;98484.66;;;3.21;70.42
13235;BME280;6683;48.506;9.050;2023-03-16T01:27:41;98480.25;;;3.22;70.63
13235;BME280;6683;48.506;9.050;2023-03-16T01:30:44;98483.97;;;3.19;70.24
13235;BME280;6683;48.506;9.050;2023-03-16T01:33:46;98485.88;;;3.17;70.29
13235;BME280;6683;48.506;9.050;2023-03-16T01:36:50;98501.66;;;3.16;70.44
13235;BME280;6683;48.506;9.050;2023-03-16T01:39:54;98506.03;;;3.15;70.12
13235;BME280;6683;48.506;9.050;2023-03-16T01:43:01;98502.88;;;3.12;70.76
13235;BME280;6683;48.506;9.050;2023-03-16T01:46:22;98499.59;;;3.10;70.76
13235;BME280;6683;48.506;9.050;2023-03-16T01:49:28;98487.63;;;3.07;70.48
13235;BME280;6683;48.506;9.050;2023-03-16T01:52:35;98483.63;;;3.03;70.05
13235;BME280;6683;48.506;9.050;2023-03-16T01:55:38;98491.03;;;2.98;70.25
13235;BME280;6683;48.506;9.050;2023-03-16T01:58:43;98488.00;;;2.93;70.08
13235;BME280;6683;48.506;9.050;2023-03-16T02:01:46;98486.34;;;2.92;70.29
13235;BME280;6683;48.506;9.050;2023-03-16T02:04:57;98484.16;;;2.88;70.10
13235;BME280;6683;48.506;9.050;2023-03-16T02:08:05;98487.56;;;2.88;70.26
13235;BME280;6683;48.506;9.050;2023-03-16T02:11:08;98478.09;;;2.87;70.42
13235;BME280;6683;48.506;9.050;2023-03-16T02:14:11;98470.97;;;2.89;70.24
13235;BME280;6683;48.506;9.050;2023-03-16T02:17:17;98474.28;;;2.91;70.60
13235;BME280;6683;48.506;9.050;2023-03-16T02:20:32;98463.72;;;2.93;70.80
13235;BME280;6683;48.506;9.050;2023-03-16T02:23:38;98462.63;;;2.95;70.84
13235;BME280;6683;48.506;9.050;2023-03-16T02:26:48;98450.97;;;2.99;70.25
13235;BME280;6683;48.506;9.050;2023-03-16T02:30:07;98439.31;;;3.03;71.03
13235;BME280;6683;48.506;9.050;2023-03-16T02:33:13;98445.91;;;3.07;70.66
13235;BME280;6683;48.506;9.050;2023-03-16T02:36:17;98441.25;;;3.11;70.72
13235;BME280;6683;48.506;9.050;2023-03-16T02:39:20;98450.34;;;3.16;70.69
13235;BME280;6683;48.506;9.050;2023-03-16T02:42:24;98443.19;;;3.18;70.57
13235;BME280;6683;48.506;9.050;2023-03-16T02:45:32;98450.19;;;3.18;70.70
13235;BME280;6683;48.506;9.050;2023-03-16T02:48:42;98465.84;;;3.18;70.53
13235;BME280;6683;48.506;9.050;2023-03-16T02:51:46;98459.69;;;3.19;70.32
13235;BME280;6683;48.506;9.050;2023-03-16T02:54:48;98462.97;;;3.21;70.56
13235;BME280;6683;48.506;9.050;2023-03-16T02:57:51;98459.41;;;3.22;70.33
13235;BME280;6683;48.506;9.050;2023-03-16T03:00:54;98465.44;;;3.22;71.02
13235;BME280;6683;48.506;9.050;2023-03-16T03:03:57;98456.53;;;3.25;70.65
13235;BME280;6683;48.506;9.050;2023-03-16T03:07:00;98452.00;;;3.27;70.44
13235;BME280;6683;48.506;9.050;2023-03-16T03:10:06;98449.41;;;3.27;70.55
13235;BME280;6683;48.506;9.050;2023-03-16T03:13:08;98435.25;;;3.30;70.74
13235;BME280;6683;48.506;9.050;2023-03-16T03:16:13;98433.47;;;3.30;70.92
13235;BME280;6683;48.506;9.050;2023-03-16T03:19:16;98434.03;;;3.34;70.85
13235;BME280;6683;48.506;9.050;2023-03-16T03:22:19;98430.44;;;3.35;71.07
13235;BME280;6683;48.506;9.050;2023-03-16T03:25:22;98432.91;;;3.36;70.49
13235;BME280;6683;48.506;9.050;2023-03-16T03:28:25;98422.38;;;3.38;70.94
13235;BME280;6683;48.506;9.050;2023-03-16T03:31:29;98418.63;;;3.40;70.81
13235;BME280;6683;48.506;9.050;2023-03-16T03:34:32;98415.09;;;3.41;71.27
13235;BME280;6683;48.506;9.050;2023-03-16T03:37:35;98413.31;;;3.42;70.78
13235;BME280;6683;48.506;9.050;2023-03-16T03:40:37;98417.69;;;3.41;70.49
13235;BME280;6683;48.506;9.050;2023-03-16T03:43:40;98416.72;;;3.42;70.99
13235;BME280;6683;48.506;9.050;2023-03-16T03:46:43;98418.38;;;3.43;71.01
13235;BME280;6683;48.506;9.050;2023-03-16T03:49:46;98414.00;;;3.44;70.74
13235;BME280;6683;48.506;9.050;2023-03-16T03:52:48;98407.25;;;3.41;70.72
13235;BME280;6683;48.506;9.050;2023-03-16T03:55:51;98415.47;;;3.37;70.56
13235;BME280;6683;48.506;9.050;2023-03-16T03:58:53;98417.25;;;3.36;71.02
13235;BME280;6683;48.506;9.050;2023-03-16T04:01:57;98416.47;;;3.36;70.79
13235;BME280;6683;48.506;9.050;2023-03-16T04:04:59;98418.09;;;3.37;70.81
13235;BME280;6683;48.506;9.050;2023-03-16T04:08:01;98413.72;;;3.37;70.97
13235;BME280;6683;48.506;9.050;2023-03-16T04:11:04;98417.00;;;3.39;70.93
13235;BME280;6683;48.506;9.050;2023-03-16T04:14:06;98420.69;;;3.37;70.78
13235;BME280;6683;48.506;9.050;2023-03-16T04:17:11;98419.88;;;3.36;70.98
13235;BME280;6683;48.506;9.050;2023-03-16T04:20:13;98408.50;;;3.37;71.10
13235;BME280;6683;48.506;9.050;2023-03-16T04:23:19;98404.38;;;3.35;70.63
13235;BME280;6683;48.506;9.050;2023-03-16T04:26:23;98399.28;;;3.33;70.85
13235;BME280;6683;48.506;9.050;2023-03-16T04:29:26;98390.63;;;3.33;70.54
13235;BME280;6683;48.506;9.050;2023-03-16T04:32:30;98397.50;;;3.34;71.52
13235;BME280;6683;48.506;9.050;2023-03-16T04:35:33;98406.13;;;3.34;70.83
13235;BME280;6683;48.506;9.050;2023-03-16T04:38:35;98395.84;;;3.33;70.92
13235;BME280;6683;48.506;9.050;2023-03-16T04:41:38;98393.25;;;3.33;70.73
13235;BME280;6683;48.506;9.050;2023-03-16T04:44:40;98394.06;;;3.33;71.01
13235;BME280;6683;48.506;9.050;2023-03-16T04:47:46;98397.78;;;3.31;71.03
13235;BME280;6683;48.506;9.050;2023-03-16T04:50:50;98395.31;;;3.29;70.66
13235;BME280;6683;48.506;9.050;2023-03-16T04:53:53;98389.25;;;3.29;71.07
13235;BME280;6683;48.506;9.050;2023-03-16T04:56:56;98392.81;;;3.28;70.53
13235;BME280;6683;48.506;9.050;2023-03-16T04:59:59;98390.34;;;3.26;70.65
13235;BME280;6683;48.506;9.050;2023-03-16T05:03:03;98389.50;;;3.25;71.01
13235;BME280;6683;48.506;9.050;2023-03-16T05:06:05;98387.75;;;3.26;70.93
13235;BME280;6683;48.506;9.050;2023-03-16T05:09:08;98384.03;;;3.29;70.92
13235;BME280;6683;48.506;9.050;2023-03-16T05:12:10;98391.72;;;3.30;71.01
13235;BME280;6683;48.506;9.050;2023-03-16T05:15:13;98388.44;;;3.28;71.03
13235;BME280;6683;48.506;9.050;2023-03-16T05:18:17;98383.50;;;3.25;70.77
13235;BME280;6683;48.506;9.050;2023-03-16T05:21:19;98386.91;;;3.25;70.95
13235;BME280;6683;48.506;9.050;2023-03-16T05:24:29;98388.72;;;3.25;71.06
13235;BME280;6683;48.506;9.050;2023-03-16T05:27:32;98397.50;;;3.24;70.47
13235;BME280;6683;48.506;9.050;2023-03-16T05:30:38;98403.09;;;3.19;70.73
13235;BME280;6683;48.506;9.050;2023-03-16T05:33:44;98403.53;;;3.15;70.93
13235;BME280;6683;48.506;9.050;2023-03-16T05:36:47;98403.53;;;3.15;71.05
13235;BME280;6683;48.506;9.050;2023-03-16T05:39:51;98399.41;;;3.12;70.53
13235;BME280;6683;48.506;9.050;2023-03-16T05:42:56;98394.44;;;3.09;70.94
13235;BME280;6683;48.506;9.050;2023-03-16T05:46:00;98400.88;;;3.05;71.22
13235;BME280;6683;48.506;9.050;2023-03-16T05:49:07;98389.22;;;3.00;71.03
13235;BME280;6683;48.506;9.050;2023-03-16T05:52:12;98391.94;;;2.98;71.33
13235;BME280;6683;48.506;9.050;2023-03-16T05:55:16;98383.19;;;2.99;71.67
13235;BME280;6683;48.506;9.050;2023-03-16T05:58:19;98383.88;;;3.01;71.63
13235;BME280;6683;48.506;9.050;2023-03-16T06:01:22;98381.81;;;3.05;71.46
13235;BME280;6683;48.506;9.050;2023-03-16T06:04:26;98379.88;;;3.07;71.50
13235;BME280;6683;48.506;9.050;2023-03-16T06:07:28;98383.19;;;3.09;71.58
13235;BME280;6683;48.506;9.050;2023-03-16T06:10:31;98381.41;;;3.09;71.47
13235;BME280;6683;48.506;9.050;2023-03-16T06:13:34;98382.09;;;3.11;71.18
13235;BME280;6683;48.506;9.050;2023-03-16T06:16:36;98386.63;;;3.09;71.46
13235;BME280;6683;48.506;9.050;2023-03-16T06:19:40;98386.63;;;3.09;71.22
13235;BME280;6683;48.506;9.050;2023-03-16T06:22:43;98377.41;;;3.05;70.91
13235;BME280;6683;48.506;9.050;2023-03-16T06:25:46;98384.31;;;3.06;71.55
13235;BME280;6683;48.506;9.050;2023-03-16T06:28:50;98387.59;;;3.08;71.50
13235;BME280;6683;48.506;9.050;2023-03-16T06:31:52;98387.44;;;3.10;71.41
13235;BME280;6683;48.506;9.050;2023-03-16T06:34:55;98386.63;;;3.09;71.08
13235;BME280;6683;48.506;9.050;2023-03-16T06:38:02;98387.31;;;3.11;71.61
13235;BME280;6683;48.506;9.050;2023-03-16T06:41:04;98393.91;;;3.15;71.23
13235;BME280;6683;48.506;9.050;2023-03-16T06:44:07;98388.69;;;3.15;71.32
13235;BME280;6683;48.506;9.050;2023-03-16T06:47:29;98386.78;;;3.17;71.30
13235;BME280;6683;48.506;9.050;2023-03-16T06:50:33;98386.38;;;3.22;70.85
13235;BME280;6683;48.506;9.050;2023-03-16T06:53:36;98395.03;;;3.22;70.76
13235;BME280;6683;48.506;9.050;2023-03-16T06:56:38;98398.16;;;3.26;71.52
13235;BME280;6683;48.506;9.050;2023-03-16T06:59:40;98401.63;;;3.27;71.12
13235;BME280;6683;48.506;9.050;2023-03-16T07:02:43;98405.84;;;3.28;71.31
13235;BME280;6683;48.506;9.050;2023-03-16T07:05:47;98403.25;;;3.28;71.31
13235;BME280;6683;48.506;9.050;2023-03-16T07:08:50;98398.75;;;3.30;71.18
13235;BME280;6683;48.506;9.050;2023-03-16T07:11:52;98408.91;;;3.33;71.34
13235;BME280;6683;48.506;9.050;2023-03-16T07:14:54;98412.34;;;3.33;71.05
13235;BME280;6683;48.506;9.050;2023-03-16T07:17:57;98408.91;;;3.33;71.47
13235;BME280;6683;48.506;9.050;2023-03-16T07:21:01;98401.50;;;3.38;71.30
13235;BME280;6683;48.506;9.050;2023-03-16T07:24:04;98408.88;;;3.42;72.00
13235;BME280;6683;48.506;9.050;2023-03-16T07:27:06;98411.25;;;3.45;71.50
13235;BME280;6683;48.506;9.050;2023-03-16T07:30:10;98414.38;;;3.49;71.98
13235;BME280;6683;48.506;9.050;2023-03-16T07:33:14;98407.13;;;3.52;71.55
13235;BME280;6683;48.506;9.050;2023-03-16T07:36:18;98406.69;;;3.57;71.47
13235;BME280;6683;48.506;9.050;2023-03-16T07:39:20;98408.91;;;3.61;71.33
13235;BME280;6683;48.506;9.050;2023-03-16T07:42:23;98413.03;;;3.64;71.53
13235;BME280;6683;48.506;9.050;2023-03-16T07:45:26;98409.19;;;3.68;71.50
13235;BME280;6683;48.506;9.050;2023-03-16T07:48:28;98412.06;;;3.74;71.69
13235;BME280;6683;48.506;9.050;2023-03-16T07:51:33;98412.19;;;3.82;71.68
13235;BME280;6683;48.506;9.050;2023-03-16T07:54:35;98417.41;;;3.92;71.85
13235;BME280;6683;48.506;9.050;2023-03-16T07:57:38;98419.31;;;3.99;71.58
13235;BME280;6683;48.506;9.050;2023-03-16T08:00:41;98411.06;;;4.04;71.55
13235;BME280;6683;48.506;9.050;2023-03-16T08:03:44;98405.13;;;4.12;71.78
13235;BME280;6683;48.506;9.050;2023-03-16T08:06:48;98408.31;;;4.15;71.53
13235;BME280;6683;48.506;9.050;2023-03-16T08:09:52;98408.28;;;4.25;71.95
13235;BME280;6683;48.506;9.050;2023-03-16T08:12:54;98402.47;;;4.31;71.50
13235;BME280;6683;48.506;9.050;2023-03-16T08:15:57;98408.34;;;4.42;71.61
13235;BME280;6683;48.506;9.050;2023-03-16T08:19:01;98404.84;;;4.61;72.13
13235;BME280;6683;48.506;9.050;2023-03-16T08:22:05;98416.22;;;4.69;71.55
13235;BME280;6683;48.506;9.050;2023-03-16T08:25:08;98411.53;;;4.73;71.27
13235;BME280;6683;48.506;9.050;2023-03-16T08:28:11;98409.03;;;4.81;71.15
13235;BME280;6683;48.506;9.050;2023-03-16T08:31:14;98409.78;;;4.91;71.37
13235;BME280;6683;48.506;9.050;2023-03-16T08:34:16;98402.19;;;4.98;71.22
13235;BME280;6683;48.506;9.050;2023-03-16T08:37:20;98398.03;;;5.05;71.09
13235;BME280;6683;48.506;9.050;2023-03-16T08:40:23;98398.47;;;5.18;71.60
13235;BME280;6683;48.506;9.050;2023-03-16T08:43:29;98389.91;;;5.25;71.76
13235;BME280;6683;48.506;9.050;2023-03-16T08:46:32;98379.53;;;5.33;71.53
13235;BME280;6683;48.506;9.050;2023-03-16T08:49:35;98380.66;;;5.48;71.61
13235;BME280;6683;48.506;9.050;2023-03-16T08:52:39;98365.91;;;5.65;72.07
13235;BME280;6683;48.506;9.050;2023-03-16T08:55:42;98361.84;;;5.88;72.41
13235;BME280;6683;48.506;9.050;2023-03-16T08:58:46;98361.69;;;6.41;72.74
13235;BME280;6683;48.506;9.050;2023-03-16T09:01:48;98349.47;;;7.07;71.43
13235;BME280;6683;48.506;9.050;2023-03-16T09:04:51;98343.31;;;7.49;70.22
13235;BME280;6683;48.506;9.050;2023-03-16T09:07:55;98342.97;;;7.68;69.43
13235;BME280;6683;48.506;9.050;2023-03-16T09:10:59;98347.72;;;7.96;69.32
13235;BME280;6683;48.506;9.050;2023-03-16T09:14:03;98350.78;;;8.48;69.17
13235;BME280;6683;48.506;9.050;2023-03-16T09:17:07;98337.69;;;9.32;67.88
13235;BME280;6683;48.506;9.050;2023-03-16T09:20:13;98333.41;;;10.43;66.11
13235;BME280;6683;48.506;9.050;2023-03-16T09:23:17;98314.38;;;11.69;63.58
13235;BME280;6683;48.506;9.050;2023-03-16T09:26:20;98307.38;;;12.85;62.07
13235;BME280;6683;48.506;9.050;2023-03-16T09:29:22;98308.63;;;13.89;60.65
13235;BME280;6683;48.506;9.050;2023-03-16T09:32:25;98301.31;;;14.81;58.38
13235;BME280;6683;48.506;9.050;2023-03-16T09:35:28;98299.97;;;15.48;54.98
13235;BME280;6683;48.506;9.050;2023-03-16T09:38:33;98299.09;;;15.85;54.04
13235;BME280;6683;48.506;9.050;2023-03-16T09:41:44;98301.19;;;16.44;54.92
13235;BME280;6683;48.506;9.050;2023-03-16T09:45:02;98291.81;;;16.77;54.04
13235;BME280;6683;48.506;9.050;2023-03-16T09:48:08;98284.50;;;16.91;55.13
13235;BME280;6683;48.506;9.050;2023-03-16T09:51:18;98286.38;;;17.32;56.58
13235;BME280;6683;48.506;9.050;2023-03-16T09:54:33;98275.59;;;17.56;57.10
13235;BME280;6683;48.506;9.050;2023-03-16T09:57:42;98259.50;;;17.86;57.12
13235;BME280;6683;48.506;9.050;2023-03-16T10:00:56;98249.53;;;18.16;56.50
13235;BME280;6683;48.506;9.050;2023-03-16T10:04:19;98253.25;;;18.27;57.09
13235;BME280;6683;48.506;9.050;2023-03-16T10:07:32;98252.19;;;18.51;55.73
13235;BME280;6683;48.506;9.050;2023-03-16T10:11:00;98249.53;;;18.91;54.82
13235;BME280;6683;48.506;9.050;2023-03-16T10:14:11;98242.25;;;19.03;53.77
13235;BME280;6683;48.506;9.050;2023-03-16T10:17:22;98236.88;;;19.14;53.57
13235;BME280;6683;48.506;9.050;2023-03-16T10:20:34;98241.03;;;19.50;53.12
13235;BME280;6683;48.506;9.050;2023-03-16T10:23:37;98237.69;;;19.76;52.28
13235;BME280;6683;48.506;9.050;2023-03-16T10:26:45;98232.00;;;20.06;52.10
13235;BME280;6683;48.506;9.050;2023-03-16T10:29:51;98216.81;;;20.50;52.22
13235;BME280;6683;48.506;9.050;2023-03-16T10:32:55;98220.41;;;21.04;51.36
13235;BME280;6683;48.506;9.050;2023-03-16T10:36:02;98211.13;;;21.43;51.12
13235;BME280;6683;48.506;9.050;2023-03-16T10:39:07;98221.56;;;22.03;50.66
13235;BME280;6683;48.506;9.050;2023-03-16T10:42:17;98225.34;;;22.54;49.24
13235;BME280;6683;48.506;9.050;2023-03-16T10:45:28;98211.59;;;23.12;48.57
13235;BME280;6683;48.506;9.050;2023-03-16T10:48:32;98194.69;;;23.67;48.29
13235;BME280;6683;48.506;9.050;2023-03-16T10:51:36;98181.41;;;24.21;47.47
13235;BME280;6683;48.506;9.050;2023-03-16T10:54:45;98167.47;;;24.78;46.69
13235;BME280;6683;48.506;9.050;2023-03-16T10:57:52;98172.19;;;25.39;45.99
13235;BME280;6683;48.506;9.050;2023-03-16T11:00:56;98161.06;;;26.08;45.32
13235;BME280;6683;48.506;9.050;2023-03-16T11:03:59;98157.75;;;26.59;44.67
13235;BME280;6683;48.506;9.050;2023-03-16T11:07:02;98147.06;;;26.91;43.01
13235;BME280;6683;48.506;9.050;2023-03-16T11:10:25;98140.31;;;27.07;41.80
13235;BME280;6683;48.506;9.050;2023-03-16T11:13:35;98147.28;;;27.13;41.42
13235;BME280;6683;48.506;9.050;2023-03-16T11:16:41;98139.13;;;27.32;41.75
13235;BME280;6683;48.506;9.050;2023-03-16T11:19:51;98135.75;;;27.40;40.71
13235;BME280;6683;48.506;9.050;2023-03-16T11:22:54;98140.00;;;27.27;39.93
13235;BME280;6683;48.506;9.050;2023-03-16T11:26:01;98140.63;;;27.43;40.75
13235;BME280;6683;48.506;9.050;2023-03-16T11:29:15;98124.59;;;27.74;40.12
13235;BME280;6683;48.506;9.050;2023-03-16T11:32:25;98121.81;;;27.92;40.10
13235;BME280;6683;48.506;9.050;2023-03-16T11:35:37;98114.38;;;27.84;39.34
13235;BME280;6683;48.506;9.050;2023-03-16T11:38:51;98115.47;;;27.69;39.47
13235;BME280;6683;48.506;9.050;2023-03-16T11:42:26;98109.75;;;27.85;39.73
13235;BME280;6683;48.506;9.050;2023-03-16T11:45:37;98108.75;;;27.81;39.41
13235;BME280;6683;48.506;9.050;2023-03-16T11:48:52;98111.34;;;27.72;39.67
13235;BME280;6683;48.506;9.050;2023-03-16T11:52:03;98095.41;;;27.98;40.21
13235;BME280;6683;48.506;9.050;2023-03-16T11:55:25;98103.56;;;28.11;39.51
13235;BME280;6683;48.506;9.050;2023-03-16T12:02:35;98084.16;;;28.31;38.72
13235;BME280;6683;48.506;9.050;2023-03-16T12:05:54;98088.47;;;28.19;38.10
13235;BME280;6683;48.506;9.050;2023-03-16T12:13:38;98077.31;;;28.34;40.24
13235;BME280;6683;48.506;9.050;2023-03-16T12:16:47;98081.25;;;28.14;39.89
13235;BME280;6683;48.506;9.050;2023-03-16T12:19:56;98070.50;;;28.09;39.67
13235;BME280;6683;48.506;9.050;2023-03-16T12:23:05;98064.16;;;28.00;39.50
13235;BME280;6683;48.506;9.050;2023-03-16T12:26:10;98059.47;;;27.46;40.37
13235;BME280;6683;48.506;9.050;2023-03-16T12:29:26;98049.41;;;27.15;39.61
13235;BME280;6683;48.506;9.050;2023-03-16T12:32:40;98038.47;;;26.69;39.83
13235;BME280;6683;48.506;9.050;2023-03-16T12:35:50;98042.75;;;25.90;40.76
13235;BME280;6683;48.506;9.050;2023-03-16T12:38:58;98049.09;;;25.23;42.29
13235;BME280;6683;48.506;9.050;2023-03-16T12:42:22;98050.22;;;24.40;43.16
13235;BME280;6683;48.506;9.050;2023-03-16T12:45:35;98051.81;;;23.72;44.39
13235;BME280;6683;48.506;9.050;2023-03-16T12:48:45;98045.97;;;23.15;45.52
13235;BME280;6683;48.506;9.050;2023-03-16T12:51:58;98036.75;;;22.50;46.22
13235;BME280;6683;48.506;9.050;2023-03-16T12:55:07;98046.53;;;21.89;47.14
13235;BME280;6683;48.506;9.050;2023-03-16T12:58:16;98045.88;;;21.30;48.05
13235;BME280;6683;48.506;9.050;2023-03-16T13:01:25;98049.97;;;20.75;48.89
13235;BME280;6683;48.506;9.050;2023-03-16T13:04:32;98040.53;;;20.19;48.18
13235;BME280;6683;48.506;9.050;2023-03-16T13:07:46;98033.50;;;19.69;48.93
13235;BME280;6683;48.506;9.050;2023-03-16T13:11:03;98034.69;;;19.24;49.50
13235;BME280;6683;48.506;9.050;2023-03-16T13:14:08;98034.25;;;18.93;49.97
13235;BME280;6683;48.506;9.050;2023-03-16T13:17:25;98032.03;;;18.74;50.71
13235;BME280;6683;48.506;9.050;2023-03-16T13:20:29;98040.72;;;18.64;50.64
13235;BME280;6683;48.506;9.050;2023-03-16T13:23:56;98035.84;;;18.61;51.07
13235;BME280;6683;48.506;9.050;2023-03-16T13:27:03;98033.31;;;18.55;50.97
13235;BME280;6683;48.506;9.050;2023-03-16T13:30:18;98027.78;;;18.45;51.16
13235;BME280;6683;48.506;9.050;2023-03-16T13:33:25;98026.78;;;18.34;50.53
13235;BME280;6683;48.506;9.050;2023-03-16T13:36:28;98021.75;;;18.21;50.83
13235;BME280;6683;48.506;9.050;2023-03-16T13:39:33;98020.56;;;18.17;51.17
13235;BME280;6683;48.506;9.050;2023-03-16T13:42:35;98015.97;;;18.12;50.79
13235;BME280;6683;48.506;9.050;2023-03-16T13:45:38;98012.50;;;18.00;51.12
13235;BME280;6683;48.506;9.050;2023-03-16T13:48:41;98011.94;;;17.98;51.66
13235;BME280;6683;48.506;9.050;2023-03-16T13:51:44;98012.50;;;18.00;51.28
13235;BME280;6683;48.506;9.050;2023-03-16T13:54:50;98021.25;;;17.96;51.15
13235;BME280;6683;48.506;9.050;2023-03-16T13:57:53;98012.41;;;17.95;51.04
13235;BME280;6683;48.506;9.050;2023-03-16T14:00:58;98006.50;;;17.93;50.47
13235;BME280;6683;48.506;9.050;2023-03-16T14:04:08;97999.78;;;17.91;50.38
13235;BME280;6683;48.506;9.050;2023-03-16T14:07:17;97999.66;;;17.86;50.08
13235;BME280;6683;48.506;9.050;2023-03-16T14:10:23;97996.66;;;17.82;49.96
13235;BME280;6683;48.506;9.050;2023-03-16T14:13:33;97996.22;;;17.74;49.51
13235;BME280;6683;48.506;9.050;2023-03-16T14:16:38;97988.03;;;17.64;49.22
13235;BME280;6683;48.506;9.050;2023-03-16T14:19:44;97981.66;;;17.53;49.10
13235;BME280;6683;48.506;9.050;2023-03-16T14:22:50;97971.31;;;17.45;49.02
13235;BME280;6683;48.506;9.050;2023-03-16T14:25:54;97962.16;;;17.41;49.04
13235;BME280;6683;48.506;9.050;2023-03-16T14:29:04;97959.75;;;17.39;49.32
13235;BME280;6683;48.506;9.050;2023-03-16T14:32:21;97955.69;;;17.37;49.26
13235;BME280;6683;48.506;9.050;2023-03-16T14:35:29;97948.72;;;17.36;48.86
13235;BME280;6683;48.506;9.050;2023-03-16T14:38:34;97936.88;;;17.32;48.78
13235;BME280;6683;48.506;9.050;2023-03-16T14:41:39;97949.19;;;17.33;48.46
13235;BME280;6683;48.506;9.050;2023-03-16T14:44:42;97944.44;;;17.35;48.27
13235;BME280;6683;48.506;9.050;2023-03-16T14:47:47;97943.38;;;17.36;48.15
13235;BME280;6683;48.506;9.050;2023-03-16T14:50:53;97953.25;;;17.35;48.16
13235;BME280;6683;48.506;9.050;2023-03-16T14:53:55;97945.25;;;17.35;47.80
13235;BME280;6683;48.506;9.050;2023-03-16T14:57:02;97946.84;;;17.36;47.80
13235;BME280;6683;48.506;9.050;2023-03-16T15:00:07;97948.25;;;17.39;47.57
13235;BME280;6683;48.506;9.050;2023-03-16T15:03:14;97944.88;;;17.43;47.56
13235;BME280;6683;48.506;9.050;2023-03-16T15:06:16;97947.88;;;17.47;47.52
13235;BME280;6683;48.506;9.050;2023-03-16T15:09:32;97939.88;;;17.47;47.86
13235;BME280;6683;48.506;9.050;2023-03-16T15:12:38;97944.41;;;17.46;47.39
13235;BME280;6683;48.506;9.050;2023-03-16T15:15:41;97946.84;;;17.48;47.05
13235;BME280;6683;48.506;9.050;2023-03-16T15:18:43;97939.63;;;17.48;47.16
13235;BME280;6683;48.506;9.050;2023-03-16T15:21:46;97936.97;;;17.48;47.40
13235;BME280;6683;48.506;9.050;2023-03-16T15:24:48;97942.31;;;17.48;47.32
13235;BME280;6683;48.506;9.050;2023-03-16T15:27:53;97933.50;;;17.48;47.32
13235;BME280;6683;48.506;9.050;2023-03-16T15:30:57;97922.00;;;17.47;47.20
13235;BME280;6683;48.506;9.050;2023-03-16T15:34:00;97926.28;;;17.48;47.29
13235;BME280;6683;48.506;9.050;2023-03-16T15:37:03;97932.69;;;17.47;47.14
13235;BME280;6683;48.506;9.050;2023-03-16T15:40:16;97931.53;;;17.43;47.59
13235;BME280;6683;48.506;9.050;2023-03-16T15:43:22;97930.16;;;17.41;47.37
13235;BME280;6683;48.506;9.050;2023-03-16T15:46:27;97931.75;;;17.42;47.24
13235;BME280;6683;48.506;9.050;2023-03-16T15:49:29;97940.81;;;17.41;47.37
13235;BME280;6683;48.506;9.050;2023-03-16T15:52:34;97943.72;;;17.39;47.40
13235;BME280;6683;48.506;9.050;2023-03-16T15:55:41;97944.19;;;17.36;47.69
13235;BME280;6683;48.506;9.050;2023-03-16T15:58:46;97942.59;;;17.35;47.43
13235;BME280;6683;48.506;9.050;2023-03-16T16:01:49;97940.13;;;17.34;47.64
13235;BME280;6683;48.506;9.050;2023-03-16T16:04:52;97932.03;;;17.29;47.33
13235;BME280;6683;48.506;9.050;2023-03-16T16:07:55;97933.31;;;17.26;47.58
13235;BME280;6683;48.506;9.050;2023-03-16T16:10:58;97934.84;;;17.22;47.32
13235;BME280;6683;48.506;9.050;2023-03-16T16:14:03;97932.88;;;17.18;47.62
13235;BME280;6683;48.506;9.050;2023-03-16T16:17:10;97928.81;;;17.15;47.75
13235;BME280;6683;48.506;9.050;2023-03-16T16:20:18;97926.03;;;17.10;47.69
13235;BME280;6683;48.506;9.050;2023-03-16T16:23:22;97933.69;;;17.07;47.70
13235;BME280;6683;48.506;9.050;2023-03-16T16:26:27;97935.44;;;17.01;47.71
13235;BME280;6683;48.506;9.050;2023-03-16T16:29:32;97930.47;;;16.93;47.78
13235;BME280;6683;48.506;9.050;2023-03-16T16:32:35;97930.56;;;16.87;47.55
13235;BME280;6683;48.506;9.050;2023-03-16T16:35:37;97930.69;;;16.80;47.55
13235;BME280;6683;48.506;9.050;2023-03-16T16:38:41;97926.28;;;16.74;47.60
13235;BME280;6683;48.506;9.050;2023-03-16T16:41:44;97924.78;;;16.66;48.03
13235;BME280;6683;48.506;9.050;2023-03-16T16:44:48;97930.44;;;16.58;48.00
13235;BME280;6683;48.506;9.050;2023-03-16T16:47:53;97936.69;;;16.52;48.21
13235;BME280;6683;48.506;9.050;2023-03-16T16:50:55;97934.91;;;16.46;48.63
13235;BME280;6683;48.506;9.050;2023-03-16T16:53:59;97930.75;;;16.39;48.58